Latest Coastal Weather Observations for Flinders Island Airport

IDT60701

Issued at 11:45 pm EST Friday 22 August 2014 (issued every 10 minutes, with the page automatically refreshed every 10 minutes)

About coastal observations | Map of coastal stations | Coastal observations for TAS | Marine services | Other Formats
Station Details ID: 099005 Name: FLINDERS ISLAND AIRPORT Lat: -40.09 Lon: 148.00 Height: 9.0 m
Data from the previous 72 hours. | See also: Recent months at Flinders Island Airport
Date/Time
EST
Temp

°C
Wind Pressure Rain
since 9am
mm
Weather Cloud Vis
km
Sea
Height
m
Swell
Dir
 
Speed
knots
Gust
knots
hPa Trend Height
m
Period
s
Dir
22/11:30pm 11.6 NNE 5 7 1031.0 - 0.0 - Partly cloudy 10 - - - -
22/11:00pm 11.1 NNE 4 7 1031.2 - 0.0 - - 10 - - - -
22/10:30pm 11.0 NNE 4 7 1031.4 - 0.0 - - 10 - - - -
22/10:00pm 11.0 NNE 5 8 1031.5 - 0.0 - - 10 - - - -
22/09:30pm 9.6 NNE 4 6 1031.8 - 0.0 - Partly cloudy 10 - - - -
22/09:00pm 10.0 E 4 6 1031.7 - 0.0 - - - - - - -
22/08:30pm 8.2 E 5 6 1031.5 - 0.0 - - 10 - - - -
22/08:00pm 8.9 E 3 5 1031.5 - 0.0 - - 10 - - - -
22/07:30pm 8.2 ENE 5 6 1031.4 - 0.0 - - 10 - - - -
22/07:00pm 10.2 E 6 7 1031.6 - 0.0 - - 10 - - - -
22/06:30pm 11.6 E 5 6 1031.5 - 0.0 - - 10 - - - -
22/06:00pm 12.4 E 6 8 1031.3 - 0.0 - - 10 - - - -
22/05:30pm 13.0 ENE 6 10 1031.0 - 0.0 - Partly cloudy 10 - - - -
22/05:26pm 13.2 ENE 7 10 1031.0 - 0.0 - Partly cloudy 10 - - - -
22/05:00pm 14.5 NE 7 10 1031.0 - 0.0 - Partly cloudy 10 - - - -
22/04:30pm 15.1 NNE 7 9 1030.9 - 0.0 - Partly cloudy 10 - - - -
22/04:20pm 15.5 NNE 7 9 1030.8 - 0.0 - Partly cloudy 10 - - - -
22/04:00pm 14.8 NE 10 14 1030.8 - 0.0 - - 10 - - - -
22/03:30pm 15.4 NNE 10 14 1030.8 - 0.0 - - 10 - - - -
22/03:00pm 15.8 NNE 11 16 1030.8 - 0.0 - - 10 - - - -
22/02:30pm 16.2 NE 13 17 1030.9 - 0.0 - Partly cloudy 10 - - - -
22/02:00pm 15.8 NNE 10 14 1031.1 - 0.0 - Partly cloudy 10 - - - -
22/01:30pm 16.0 NNE 8 12 1031.4 - 0.0 - Partly cloudy 10 - - - -
22/01:00pm 16.3 NNE 10 15 1031.6 - 0.0 - Partly cloudy 10 - - - -
22/12:30pm 16.0 N 9 13 1031.8 - 0.0 - Partly cloudy 10 - - - -
22/12:00pm 15.5 NNE 9 14 1032.2 - 0.0 - Mostly cloudy 10 - - - -
22/11:30am 16.2 NNE 11 15 1032.5 - 0.0 - Partly cloudy 10 - - - -
22/11:00am 15.8 NE 12 15 1032.9 - 0.0 - Partly cloudy 10 - - - -
22/10:30am 16.0 ENE 10 16 1033.0 - 0.0 - Partly cloudy 10 - - - -
22/10:00am 15.1 NE 12 15 1033.2 - 0.0 - Partly cloudy 10 - - - -
22/09:30am 15.0 NE 11 15 1033.4 - 0.0 - Partly cloudy 10 - - - -
22/09:05am 13.8 NE 7 9 1033.5 - 0.0 - Partly cloudy 10 - - - -
22/09:00am 13.9 NE 7 9 1033.5 - 0.0 - Mostly cloudy 10 - - - -
22/08:30am 12.4 E 6 9 1033.5 - 0.0 - Partly cloudy 10 - - - -
22/08:00am 11.6 E 4 6 1033.5 - 0.0 - Partly cloudy - - - - -
22/07:54am 11.7 E 5 7 1033.5 - 0.0 - Partly cloudy - - - - -
22/07:30am 6.6 SE 3 5 1033.2 - 0.0 - Partly cloudy 10 - - - -
22/07:00am 6.9 E 3 4 1032.9 - 0.0 - Partly cloudy 10 - - - -
22/06:30am 7.4 CALM 0 3 1032.6 - 0.0 - Partly cloudy 10 - - - -
22/06:00am 7.6 SSE 1 4 1032.5 - 0.0 - Mostly clear 10 - - - -
22/05:30am 9.8 NE 5 6 1032.4 - 0.0 - - 10 - - - -
22/05:00am 10.4 N 6 7 1032.3 - 0.0 - Partly cloudy 10 - - - -
22/04:30am 8.8 NNE 4 5 1032.1 - 0.0 - Partly cloudy 10 - - - -
22/04:00am 9.7 NE 5 5 1032.1 - 0.0 - - 10 - - - -
22/03:30am 9.6 NNE 3 4 1032.1 - 0.0 - - 10 - - - -
22/03:00am 10.3 NE 6 8 1032.1 - 0.0 - - 10 - - - -
22/02:30am 11.4 ENE 9 12 1032.2 - 0.0 - - 10 - - - -
22/02:00am 10.4 ENE 9 12 1032.4 - 0.0 - - 10 - - - -
22/01:30am 10.4 ENE 10 13 1032.5 - 0.0 - - 10 - - - -
22/01:00am 10.4 ENE 9 11 1032.6 - 0.0 - - 10 - - - -
22/12:30am 10.6 ENE 9 12 1032.6 - 0.0 - - 10 - - - -
22/12:00am 10.9 ENE 10 14 1032.6 - 0.0 - - 10 - - - -
 
Date/Time
EST
Temp

°C
Wind Pressure Rain
since 9am
mm
Weather Cloud Vis
km
Sea
Height
m
Swell
Dir
 
Speed
knots
Gust
knots
hPa Trend Height
m
Period
s
Dir
21/11:30pm 11.3 ENE 12 16 1032.7 - 0.0 - Partly cloudy 10 - - - -
21/11:00pm 10.8 ENE 10 13 1032.7 - 0.0 - - 10 - - - -
21/10:30pm 10.6 ENE 9 11 1032.7 - 0.0 - - 10 - - - -
21/10:00pm 10.3 ENE 7 10 1032.8 - 0.0 - - 10 - - - -
21/09:30pm 9.5 E 5 7 1032.7 - 0.0 - - 10 - - - -
21/09:00pm 9.8 E 6 8 1032.9 - 0.0 - Mostly clear 10 - - - -
21/08:30pm 10.1 E 6 8 1032.8 - 0.0 - Partly cloudy 10 - - - -
21/08:00pm 11.0 E 6 8 1032.8 - 0.0 - Partly cloudy 10 - - - -
21/07:40pm 11.4 ENE 9 12 1032.7 - 0.0 - Partly cloudy 10 - - - -
21/07:30pm 11.5 E 9 13 1032.7 - 0.0 - Partly cloudy 10 - - - -
21/07:00pm 11.1 E 7 9 1032.4 - 0.0 - Partly cloudy 10 - - - -
21/06:30pm 11.3 E 7 9 1032.2 - 0.0 - - 10 - - - -
21/06:00pm 12.3 E 6 9 1031.9 - 0.0 - Partly cloudy 10 - - - -
21/05:30pm 12.2 E 9 14 1031.6 - 0.0 - Partly cloudy 10 - - - -
21/05:00pm 13.2 ENE 11 15 1031.2 - 0.0 - Partly cloudy 10 - - - -
21/04:30pm 13.7 E 10 15 1031.1 - 0.0 - Partly cloudy 10 - - - -
21/04:00pm 14.0 E 9 17 1030.9 - 0.0 - Partly cloudy 10 - - - -
21/03:30pm 14.3 E 11 16 1030.7 - 0.0 - Partly cloudy 10 - - - -
21/03:00pm 14.5 E 11 16 1030.7 - 0.0 - Mostly cloudy 10 - - - -
21/02:30pm 14.6 E 11 15 1030.7 - 0.0 - Partly cloudy 10 - - - -
21/02:00pm 14.9 ENE 10 16 1030.8 - 0.0 - Partly cloudy 10 - - - -
21/01:30pm 14.5 ENE 10 15 1031.0 - 0.0 - Partly cloudy 10 - - - -
21/01:00pm 14.9 ENE 11 16 1031.1 - 0.0 - Partly cloudy 10 - - - -
21/12:30pm 14.7 E 9 14 1031.3 - 0.0 - Partly cloudy 10 - - - -
21/12:00pm 14.9 E 10 15 1031.5 - 0.0 - Mostly cloudy 10 - - - -
21/11:30am 14.5 E 10 15 1031.8 - 0.0 - Partly cloudy 10 - - - -
21/11:00am 14.9 E 10 15 1031.9 - 0.0 - Partly cloudy 10 - - - -
21/10:30am 13.8 E 10 17 1032.1 - 0.0 - Partly cloudy 10 - - - -
21/10:00am 13.5 E 9 14 1032.1 - 0.0 - Partly cloudy 10 - - - -
21/09:30am 13.9 E 8 14 1032.0 - 0.0 - - 10 - - - -
21/09:00am 13.6 E 6 8 1032.1 - 0.0 - - 10 - - - -
21/08:30am 12.8 CALM 0 0 1032.0 - 0.0 - Partly cloudy 10 - - - -
21/08:00am 12.0 E 4 5 1031.8 - 0.0 - Partly cloudy 10 - - - -
21/07:30am 10.7 NNE 4 6 1031.5 - 0.0 - Cloudy 10 - - - -
21/07:00am 8.3 NE 5 7 1031.1 - 0.0 - Cloudy 10 - - - -
21/06:30am 8.6 NE 6 7 1030.8 - 0.0 - Partly cloudy 10 - - - -
21/06:00am 9.0 NE 4 8 1030.6 - 0.0 - - 10 - - - -
21/05:30am 7.1 E 4 5 1030.3 - 0.0 - Partly cloudy 10 - - - -
21/05:00am 8.5 E 5 9 1030.2 - 0.0 - Cloudy 10 - - - -
21/04:30am 7.6 E 4 6 1030.0 - 0.0 - Cloudy 10 - - - -
21/04:00am 7.0 NE 4 5 1029.8 - 0.0 - Cloudy 10 - - - -
21/03:30am 6.2 E 4 6 1029.6 - 0.0 - Cloudy 10 - - - -
21/03:00am 5.1 ENE 4 5 1029.6 - 0.0 - Cloudy 10 - - - -
21/02:30am 4.9 ENE 5 6 1029.7 - 0.0 - Cloudy 10 - - - -
21/02:00am 4.1 ENE 5 6 1029.9 - 0.0 - Cloudy 10 - - - -
21/01:30am 2.9 NE 5 6 1030.0 - 0.0 - Cloudy 10 - - - -
21/01:00am 1.6 NE 5 6 1030.0 - 0.0 - Partly cloudy 10 - - - -
21/12:30am 1.4 ENE 5 7 1029.9 - 0.0 - - 10 - - - -
21/12:00am 1.6 ENE 5 5 1029.9 - 0.0 - - 10 - - - -
 
Date/Time
EST
Temp

°C
Wind Pressure Rain
since 9am
mm
Weather Cloud Vis
km
Sea
Height
m
Swell
Dir
 
Speed
knots
Gust
knots
hPa Trend Height
m
Period
s
Dir
20/11:30pm 2.4 NE 5 6 1030.0 - 0.0 - - 10 - - - -
20/11:00pm 1.6 NE 4 6 1029.9 - 0.0 - - 10 - - - -
20/10:30pm 2.0 ENE 6 7 1029.8 - 0.0 - - - - - - -
20/10:00pm 2.3 NE 6 7 1029.9 - 0.0 - - 10 - - - -
20/09:30pm 2.6 NE 6 7 1029.8 - 0.0 - - 10 - - - -
20/09:00pm 3.5 NE 6 8 1029.6 - 0.0 - - 10 - - - -
20/08:30pm 3.9 ENE 5 6 1029.4 - 0.0 - - 10 - - - -
20/08:00pm 5.0 ENE 3 5 1029.1 - 0.0 - - 10 - - - -
20/07:30pm 6.2 NE 2 4 1028.8 - 0.0 - - 10 - - - -
20/07:00pm 6.8 NE 5 6 1028.6 - 0.0 - Partly cloudy 10 - - - -
20/06:30pm 8.6 NE 4 5 1028.2 - 0.0 - Partly cloudy 10 - - - -
20/06:00pm 10.3 CALM 0 2 1027.9 - 0.0 - Cloudy 10 - - - -
20/05:30pm 11.2 N 1 3 1027.5 - 0.0 - Partly cloudy 10 - - - -
20/05:00pm 11.4 N 3 5 1027.2 - 0.0 - Cloudy 10 - - - -
20/04:30pm 11.6 W 4 5 1026.9 - 0.0 - Partly cloudy 10 - - - -
20/04:00pm 12.1 WSW 6 7 1026.5 - 0.0 - Partly cloudy 10 - - - -
20/03:30pm 12.8 W 6 8 1026.2 - 0.0 - Partly cloudy 10 - - - -
20/03:00pm 12.8 W 6 9 1025.9 - 0.0 - Mostly clear 10 - - - -
20/02:30pm 12.5 WSW 5 6 1025.9 - 0.0 - Partly cloudy 10 - - - -
20/02:00pm 12.2 SW 7 8 1025.8 - 0.0 - Partly cloudy 10 - - - -
20/01:30pm 12.3 SW 5 6 1025.7 - 0.0 - Partly cloudy 10 - - - -
20/01:00pm 12.2 SW 5 6 1025.7 - 0.0 - Partly cloudy 10 - - - -
20/12:30pm 11.8 SSW 6 7 1025.9 - 0.0 - - 10 - - - -
20/12:00pm 11.4 SSW 5 6 1026.1 - 0.0 - Cloudy 10 - - - -
20/11:30am 12.3 SSW 6 8 1026.2 - 0.0 - Partly cloudy 10 - - - -
20/11:00am 12.4 WSW 6 8 1026.3 - 0.0 - Partly cloudy 10 - - - -
20/10:30am 12.3 SW 5 6 1026.2 - 0.0 - - 10 - - - -
20/10:00am 11.9 SSW 5 5 1026.2 - 0.0 - - 10 - - - -
20/09:30am 10.6 NE 1 3 1026.1 - 0.0 - - 10 - - - -
20/09:00am 9.4 ENE 5 6 1025.9 - 0.0 - - 10 - - - -
20/08:30am 6.7 ENE 6 7 1025.6 - 0.0 - - 10 - - - -
20/08:00am 3.6 ENE 7 7 1025.4 - 0.0 - - 10 - - - -
20/07:30am 1.4 ENE 7 8 1025.1 - 0.0 - - - - - - -
20/07:00am 1.5 NE 8 9 1024.9 - 0.0 - - - - - - -
20/06:30am 1.1 ENE 7 8 1024.4 - 0.0 - - - - - - -
20/06:00am 0.7 ENE 7 8 1024.2 - 0.0 - - - - - - -
20/05:30am 1.0 ENE 7 8 1024.0 - 0.0 - - - - - - -
20/05:00am 1.0 ENE 7 8 1024.0 - 0.0 - - - - - - -
20/04:30am 0.7 NE 7 8 1023.9 - 0.0 - - - - - - -
20/04:00am 0.6 ENE 7 8 1023.8 - 0.0 - - - - - - -
20/03:30am 0.3 ENE 7 8 1023.7 - 0.0 - - - - - - -
20/03:00am 0.4 ENE 7 8 1023.7 - 0.0 - - - - - - -
20/02:30am 0.3 ENE 8 8 1023.9 - 0.0 - - - - - - -
20/02:00am 0.3 ENE 7 8 1024.0 - 0.0 - - - - - - -
20/01:30am 0.1 ENE 7 8 1024.1 - 0.0 - - 10 - - - -
20/01:00am 0.1 ENE 6 8 1024.0 - 0.0 - - 10 - - - -
20/12:30am 1.2 ENE 8 9 1024.0 - 0.0 - - - - - - -
20/12:00am 0.8 ENE 8 9 1024.2 - 0.0 - - - - - - -

Other Formats:

Comma delimited format used in spreadsheet applications
http://www.bom.gov.au/fwo/IDT60701/IDT60701.94980.axf

JavaScript Object Notation format (JSON) in row-major order
http://www.bom.gov.au/fwo/IDT60701/IDT60701.94980.json